createdAt,value
2022-08-05T00:01:27.925Z,52.81
2022-08-05T00:03:56.957Z,52.73
2022-08-05T00:06:32.118Z,52.95
2022-08-05T00:08:59.173Z,52.76
2022-08-05T00:11:34.515Z,52.65
2022-08-05T00:14:01.419Z,52.58
2022-08-05T00:16:35.749Z,53.08
2022-08-05T00:19:02.953Z,53.81
2022-08-05T00:21:30.498Z,53.52
2022-08-05T00:24:10.741Z,53.74
2022-08-05T00:26:37.371Z,54.60
2022-08-05T00:29:03.568Z,55.30
2022-08-05T00:31:53.675Z,57.72
2022-08-05T00:34:55.706Z,58.54
2022-08-05T00:37:12.692Z,59.57
2022-08-05T00:39:43.910Z,59.84
2022-08-05T00:42:31.778Z,60.83
2022-08-05T00:44:58.527Z,61.19
2022-08-05T00:47:25.575Z,61.46
2022-08-05T00:49:51.963Z,61.93
2022-08-05T00:52:18.197Z,62.93
2022-08-05T00:54:54.642Z,63.74
2022-08-05T00:57:22.404Z,64.20
2022-08-05T00:59:51.715Z,64.59
2022-08-05T01:02:17.884Z,65.31
2022-08-05T01:04:44.070Z,65.39
2022-08-05T01:07:13.739Z,66.08
2022-08-05T01:09:40.131Z,66.16
2022-08-05T01:12:17.875Z,66.46
2022-08-05T01:14:44.574Z,66.77
2022-08-05T01:17:10.730Z,67.09
2022-08-05T01:20:00.701Z,67.38
2022-08-05T01:22:24.085Z,67.83
2022-08-05T01:24:50.660Z,68.39
2022-08-05T01:27:19.164Z,68.82
2022-08-05T01:29:45.743Z,69.62
2022-08-05T01:32:18.608Z,69.95
2022-08-05T01:34:45.033Z,70.42
2022-08-05T01:37:18.064Z,70.80
2022-08-05T01:39:51.144Z,71.04
2022-08-05T01:42:17.398Z,71.33
2022-08-05T01:44:43.550Z,71.38
2022-08-05T01:47:11.910Z,72.04
2022-08-05T01:50:01.389Z,71.88
2022-08-05T01:52:25.219Z,72.26
2022-08-05T01:54:52.066Z,72.21
2022-08-05T01:58:29.565Z,71.67
2022-08-05T02:00:05.264Z,71.79
2022-08-05T02:02:37.980Z,72.03
2022-08-05T02:05:12.781Z,71.87
2022-08-05T02:07:41.639Z,72.15
2022-08-05T02:10:17.464Z,72.76
2022-08-05T02:12:43.841Z,72.53
2022-08-05T02:15:19.733Z,72.59
2022-08-05T02:18:33.038Z,74.01
2022-08-05T02:20:32.297Z,72.61
2022-08-05T02:23:05.366Z,72.23
2022-08-05T02:25:49.365Z,72.28
2022-08-05T02:28:16.549Z,72.75
2022-08-05T02:30:56.508Z,72.78
2022-08-05T02:33:24.634Z,72.52
2022-08-05T02:36:02.492Z,71.56
2022-08-05T02:38:28.699Z,72.38
2022-08-05T02:41:06.368Z,71.99
2022-08-05T02:44:02.497Z,72.58
2022-08-05T02:46:27.657Z,72.99
2022-08-05T02:48:53.937Z,73.21
2022-08-05T02:51:20.087Z,73.49
2022-08-05T02:53:54.898Z,73.82
2022-08-05T02:56:21.166Z,73.40
2022-08-05T02:58:51.585Z,73.94
2022-08-05T03:01:19.573Z,74.04
2022-08-05T03:04:02.023Z,73.82
2022-08-05T03:06:56.334Z,73.59
2022-08-05T03:09:15.928Z,74.58
2022-08-05T03:11:57.334Z,74.60
2022-08-05T03:14:24.350Z,75.47
2022-08-05T03:16:53.390Z,76.03
2022-08-05T03:19:34.594Z,76.46
2022-08-05T03:22:02.386Z,75.73
2022-08-05T03:24:31.007Z,76.92
2022-08-05T03:26:57.172Z,77.21
2022-08-05T03:29:23.507Z,79.81
2022-08-05T03:31:56.488Z,78.91
2022-08-05T03:34:26.503Z,79.48
2022-08-05T03:36:53.351Z,78.67
2022-08-05T03:39:27.264Z,77.73
2022-08-05T03:41:53.970Z,78.48
2022-08-05T03:44:22.588Z,78.41
2022-08-05T03:46:48.736Z,77.10
2022-08-05T03:49:15.583Z,78.40
2022-08-05T03:52:50.547Z,78.53
2022-08-05T03:55:50.441Z,83.58
2022-08-05T03:57:16.619Z,91.20
2022-08-05T03:59:47.022Z,89.93
2022-08-05T04:02:39.034Z,92.23
2022-08-05T04:05:09.660Z,99.63
2022-08-05T04:07:36.189Z,98.18
2022-08-05T04:10:22.330Z,88.31
2022-08-05T04:12:48.525Z,83.85
2022-08-05T04:15:15.549Z,83.56
2022-08-05T04:17:56.601Z,83.16
2022-08-05T04:20:23.691Z,82.89
2022-08-05T04:22:49.862Z,86.05
2022-08-05T04:25:16.738Z,84.66
2022-08-05T04:27:56.660Z,85.10
2022-08-05T04:30:24.412Z,84.73
2022-08-05T04:32:52.776Z,82.70
2022-08-05T04:35:19.487Z,81.83
2022-08-05T04:38:01.046Z,80.48
2022-08-05T04:40:29.219Z,81.45
2022-08-05T04:42:55.739Z,80.39
2022-08-05T04:45:22.887Z,79.75
2022-08-05T04:48:08.196Z,79.57
2022-08-05T04:51:01.551Z,80.09
2022-08-05T04:53:28.861Z,80.62
2022-08-05T04:56:14.986Z,80.05
2022-08-05T04:58:46.059Z,81.17
2022-08-05T05:01:13.155Z,80.63
2022-08-05T05:03:41.919Z,80.86
2022-08-05T05:06:38.766Z,82.39
2022-08-05T05:08:55.054Z,82.63
2022-08-05T05:11:21.655Z,82.24
2022-08-05T05:14:08.587Z,83.45
2022-08-05T05:16:34.968Z,84.02
2022-08-05T05:19:18.797Z,82.54
2022-08-05T05:21:47.280Z,82.96
2022-08-05T05:24:13.484Z,83.85
2022-08-05T05:26:46.475Z,82.87
2022-08-05T05:29:16.216Z,82.64
2022-08-05T05:31:42.399Z,81.81
2022-08-05T05:34:12.780Z,82.16
2022-08-05T05:36:41.659Z,83.18
2022-08-05T05:39:10.888Z,81.96
2022-08-05T05:41:40.713Z,81.79
2022-08-05T05:44:36.848Z,79.76
2022-08-05T05:46:54.148Z,79.16
2022-08-05T05:49:23.300Z,77.80
2022-08-05T05:51:50.777Z,76.34
2022-08-05T05:54:19.749Z,74.13
2022-08-05T05:56:45.919Z,71.29
2022-08-05T05:59:13.596Z,71.46
2022-08-05T06:01:40.152Z,72.19
2022-08-05T06:04:06.478Z,72.80
2022-08-05T06:06:34.960Z,72.62
2022-08-05T06:09:01.296Z,74.80
2022-08-05T06:11:29.988Z,77.28
2022-08-05T06:13:56.530Z,78.64
2022-08-05T06:16:29.921Z,78.03
2022-08-05T06:18:59.870Z,80.57
2022-08-05T06:21:36.011Z,80.30
2022-08-05T06:24:03.515Z,77.90
2022-08-05T06:26:33.782Z,76.10
2022-08-05T06:29:03.519Z,74.19
2022-08-05T06:31:47.379Z,74.35
2022-08-05T06:34:16.842Z,70.48
2022-08-05T06:36:57.534Z,68.47
2022-08-05T06:39:27.866Z,67.23
2022-08-05T06:41:54.348Z,68.89
2022-08-05T06:44:22.029Z,68.35
2022-08-05T06:46:50.785Z,69.36
2022-08-05T06:49:17.415Z,68.16
2022-08-05T06:51:45.003Z,69.14
2022-08-05T06:54:12.060Z,65.04
2022-08-05T06:56:54.713Z,66.56
2022-08-05T06:59:38.549Z,64.15
2022-08-05T07:02:05.117Z,65.20
2022-08-05T07:04:31.319Z,63.62
2022-08-05T07:06:59.229Z,64.21
2022-08-05T07:09:25.406Z,64.40
2022-08-05T07:12:00.489Z,63.16
2022-08-05T07:14:29.207Z,64.79
2022-08-05T07:18:00.013Z,55.79
2022-08-05T07:20:31.005Z,51.35
2022-08-05T07:22:30.134Z,54.67
2022-08-05T07:24:56.639Z,54.56
2022-08-05T07:27:23.013Z,53.48
2022-08-05T07:30:28.015Z,53.19
2022-08-05T07:32:40.120Z,56.02
2022-08-05T07:36:02.309Z,57.28
2022-08-05T07:37:54.843Z,57.98
2022-08-05T07:40:31.853Z,57.81
2022-08-05T07:42:58.964Z,57.74
2022-08-05T07:45:43.381Z,58.48
2022-08-05T07:48:11.317Z,54.36
2022-08-05T07:50:39.597Z,56.18
2022-08-05T07:53:08.281Z,56.04
2022-08-05T07:55:44.195Z,53.31
2022-08-05T07:58:57.214Z,57.50
2022-08-05T08:01:12.368Z,56.08
2022-08-05T08:03:44.332Z,58.54
2022-08-05T08:06:11.238Z,59.35
2022-08-05T08:08:37.397Z,60.09
2022-08-05T08:11:03.593Z,61.57
2022-08-05T08:13:49.289Z,63.27
2022-08-05T08:16:50.519Z,64.50
2022-08-05T08:19:01.785Z,65.05
2022-08-05T08:21:28.387Z,69.82
2022-08-05T08:24:01.846Z,68.39
2022-08-05T08:26:30.727Z,67.87
2022-08-05T08:28:59.825Z,70.36
2022-08-05T08:31:43.122Z,67.97
2022-08-05T08:34:09.273Z,68.50
2022-08-05T08:36:49.027Z,67.35
2022-08-05T08:39:16.747Z,67.92
2022-08-05T08:41:51.989Z,67.46
2022-08-05T08:45:24.014Z,66.65
2022-08-05T08:47:21.617Z,66.22
2022-08-05T08:50:13.127Z,64.29
2022-08-05T08:52:34.735Z,62.84
2022-08-05T08:55:00.931Z,63.60
2022-08-05T08:57:42.061Z,62.66
2022-08-05T09:00:13.309Z,62.38
2022-08-05T09:02:41.984Z,58.36
2022-08-05T09:05:16.628Z,56.66
2022-08-05T09:07:57.413Z,53.96
2022-08-05T09:10:27.691Z,53.32
2022-08-05T09:12:55.874Z,50.54
2022-08-05T09:15:22.087Z,53.87
2022-08-05T09:17:52.917Z,54.72
2022-08-05T09:20:37.848Z,53.62
2022-08-05T09:23:05.039Z,53.61
2022-08-05T09:26:03.413Z,54.55
2022-08-05T09:28:21.158Z,52.34
2022-08-05T09:30:47.484Z,48.94
2022-08-05T09:33:17.202Z,49.18
2022-08-05T09:35:43.446Z,48.27
2022-08-05T09:38:12.672Z,46.42
2022-08-05T09:40:52.742Z,49.25
2022-08-05T09:43:20.219Z,47.83
2022-08-05T09:46:06.757Z,46.62
2022-08-05T09:48:32.631Z,46.37
2022-08-05T09:50:58.861Z,45.78
2022-08-05T09:53:54.951Z,45.21
2022-08-05T09:56:13.532Z,45.75
2022-08-05T09:58:41.668Z,47.06
2022-08-05T10:01:14.574Z,45.04
2022-08-05T10:03:56.564Z,45.22
2022-08-05T10:06:23.423Z,43.56
2022-08-05T10:08:50.364Z,40.45
2022-08-05T10:11:20.192Z,41.48
2022-08-05T10:13:48.324Z,40.89
2022-08-05T10:16:15.478Z,41.77
2022-08-05T10:18:43.127Z,41.13
2022-08-05T10:21:15.636Z,41.78
2022-08-05T10:23:59.688Z,43.12
2022-08-05T10:26:32.381Z,44.08
2022-08-05T10:29:00.069Z,42.62
2022-08-05T10:32:54.812Z,43.26
2022-08-05T10:34:12.548Z,44.35
2022-08-05T10:36:39.783Z,42.75
2022-08-05T10:39:11.658Z,42.89
2022-08-05T10:41:45.353Z,43.72
2022-08-05T10:44:13.190Z,42.70
2022-08-05T10:46:39.347Z,44.07
2022-08-05T10:49:09.828Z,43.37
2022-08-05T10:51:36.424Z,43.71
2022-08-05T10:54:28.580Z,42.71
2022-08-05T10:56:58.903Z,42.87
2022-08-05T11:00:02.963Z,43.51
2022-08-05T11:02:14.476Z,42.70
2022-08-05T11:04:58.000Z,41.93
2022-08-05T11:07:32.853Z,44.12
2022-08-05T11:10:10.426Z,42.20
2022-08-05T11:12:38.038Z,43.53
2022-08-05T11:15:19.082Z,44.38
2022-08-05T11:17:57.232Z,44.18
2022-08-05T11:20:26.764Z,42.19
2022-08-05T11:22:58.044Z,44.69
2022-08-05T11:26:05.273Z,45.35
2022-08-05T11:28:17.241Z,45.85
2022-08-05T11:30:43.624Z,45.53
2022-08-05T11:33:20.903Z,45.36
2022-08-05T11:36:07.951Z,46.99
2022-08-05T11:38:45.271Z,47.19
2022-08-05T11:41:58.056Z,48.37
2022-08-05T11:44:07.202Z,47.83
2022-08-05T11:46:34.263Z,49.35
2022-08-05T11:49:01.289Z,51.84
2022-08-05T11:51:44.667Z,52.11
2022-08-05T11:54:14.172Z,52.30
2022-08-05T11:56:40.938Z,52.18
2022-08-05T11:59:13.834Z,50.55
2022-08-05T12:01:42.118Z,52.57
2022-08-05T12:04:09.906Z,52.02
2022-08-05T12:06:39.883Z,53.35
2022-08-05T12:09:19.925Z,55.57
2022-08-05T12:11:46.434Z,55.77
2022-08-05T12:14:13.564Z,55.96
2022-08-05T12:16:39.804Z,57.34
2022-08-05T12:19:06.075Z,56.85
2022-08-05T12:21:38.999Z,56.82
2022-08-05T12:24:06.975Z,54.74
2022-08-05T12:26:33.671Z,54.36
2022-08-05T12:29:01.382Z,53.69
2022-08-05T12:31:33.665Z,54.34
2022-08-05T12:34:16.411Z,54.17
2022-08-05T12:36:47.245Z,53.18
2022-08-05T12:39:13.489Z,52.81
2022-08-05T12:41:43.905Z,51.90
2022-08-05T12:44:11.671Z,52.65
2022-08-05T12:46:40.503Z,52.96
2022-08-05T12:49:13.108Z,52.37
2022-08-05T12:52:13.976Z,53.05
2022-08-05T12:54:26.765Z,52.78
2022-08-05T12:56:52.977Z,53.86
2022-08-05T12:59:23.852Z,52.86
2022-08-05T13:01:59.857Z,52.15
2022-08-05T13:04:32.307Z,53.58
2022-08-05T13:06:58.471Z,53.05
2022-08-05T13:09:27.977Z,52.87
2022-08-05T13:12:01.648Z,55.22
2022-08-05T13:14:36.079Z,54.48
2022-08-05T13:17:02.894Z,55.19
2022-08-05T13:19:51.900Z,56.57
2022-08-05T13:22:28.086Z,56.73
2022-08-05T13:24:58.079Z,55.54
2022-08-05T13:27:36.316Z,55.56
2022-08-05T13:30:35.042Z,56.26
2022-08-05T13:32:51.747Z,55.41
2022-08-05T13:35:22.472Z,56.78
2022-08-05T13:38:05.074Z,54.59
2022-08-05T13:40:51.544Z,54.17
2022-08-05T13:43:22.015Z,53.43
2022-08-05T13:45:48.532Z,54.66
2022-08-05T13:48:58.358Z,53.90
2022-08-05T13:51:03.168Z,56.25
2022-08-05T13:53:29.339Z,55.22
2022-08-05T13:56:01.977Z,54.73
2022-08-05T13:58:31.208Z,53.70
2022-08-05T14:00:57.463Z,53.14
2022-08-05T14:03:23.985Z,53.46
2022-08-05T14:06:25.190Z,50.64
2022-08-05T14:08:36.778Z,49.46
2022-08-05T14:11:21.030Z,47.67
2022-08-05T14:13:48.532Z,49.18
2022-08-05T14:16:20.996Z,49.68
2022-08-05T14:18:47.161Z,50.18
2022-08-05T14:21:24.065Z,48.56
2022-08-05T14:24:00.510Z,48.95
2022-08-05T14:26:37.067Z,49.18
2022-08-05T14:29:15.963Z,49.19
2022-08-05T14:32:02.600Z,49.99
2022-08-05T14:34:29.339Z,49.27
2022-08-05T14:37:01.717Z,49.88
2022-08-05T14:39:27.918Z,48.95
2022-08-05T14:42:15.891Z,50.51
2022-08-05T14:44:41.584Z,48.03
2022-08-05T14:47:07.767Z,50.11
2022-08-05T14:49:59.621Z,51.56
2022-08-05T14:52:36.578Z,53.06
2022-08-05T14:55:07.423Z,52.94
2022-08-05T14:57:34.055Z,53.17
2022-08-05T15:00:20.024Z,53.35
2022-08-05T15:02:46.349Z,53.50
2022-08-05T15:05:13.517Z,53.22
2022-08-05T15:08:11.357Z,53.53
2022-08-05T15:10:28.893Z,54.61
2022-08-05T15:13:00.861Z,54.37
2022-08-05T15:15:54.420Z,53.91
2022-08-05T15:18:15.759Z,54.43
2022-08-05T15:20:43.606Z,54.53
2022-08-05T15:23:12.154Z,53.98
2022-08-05T15:25:53.053Z,54.27
2022-08-05T15:28:26.982Z,55.10
2022-08-05T15:30:54.093Z,56.85
2022-08-05T15:34:18.486Z,59.39
2022-08-05T15:36:16.944Z,61.23
2022-08-05T15:38:44.430Z,62.13
2022-08-05T15:41:23.160Z,61.94
2022-08-05T15:43:50.452Z,63.36
2022-08-05T15:46:16.765Z,65.01
2022-08-05T15:48:52.872Z,65.21
2022-08-05T15:52:10.017Z,65.74
2022-08-05T15:54:11.363Z,67.97
2022-08-05T15:56:41.667Z,68.32
2022-08-05T15:59:07.819Z,68.50
2022-08-05T16:01:39.474Z,69.22
2022-08-05T16:04:06.204Z,69.68
2022-08-05T16:06:36.548Z,68.77
2022-08-05T16:09:02.937Z,69.59
2022-08-05T16:11:42.469Z,68.19
2022-08-05T16:14:09.777Z,66.19
2022-08-05T16:16:35.955Z,66.84
2022-08-05T16:19:02.176Z,67.14
2022-08-05T16:22:00.466Z,69.26
2022-08-05T16:24:41.532Z,69.57
2022-08-05T16:27:00.661Z,70.28
2022-08-05T16:29:26.836Z,71.54
2022-08-05T16:31:57.793Z,71.81
2022-08-05T16:34:24.066Z,72.44
2022-08-05T16:36:50.267Z,72.27
2022-08-05T16:39:18.678Z,72.00
2022-08-05T16:42:27.732Z,71.61
2022-08-05T16:44:33.136Z,69.42
2022-08-05T16:46:59.297Z,69.04
2022-08-05T16:49:25.460Z,69.71
2022-08-05T16:51:56.850Z,69.10
2022-08-05T16:54:28.903Z,67.77
2022-08-05T16:56:59.004Z,69.69
2022-08-05T16:59:25.175Z,69.20
2022-08-05T17:01:56.087Z,69.74
2022-08-05T17:04:23.927Z,70.08
2022-08-05T17:06:53.577Z,70.44
2022-08-05T17:09:19.884Z,70.26
2022-08-05T17:11:48.706Z,71.37
2022-08-05T17:14:34.122Z,69.08
2022-08-05T17:17:01.004Z,67.74
2022-08-05T17:19:28.816Z,66.92
2022-08-05T17:21:56.787Z,67.08
2022-08-05T17:24:35.313Z,66.57
2022-08-05T17:27:08.555Z,66.64
2022-08-05T17:29:41.343Z,67.90
2022-08-05T17:32:08.428Z,68.31
2022-08-05T17:34:35.011Z,69.50
2022-08-05T17:37:01.197Z,69.14
2022-08-05T17:39:33.903Z,69.97
2022-08-05T17:42:17.499Z,70.53
2022-08-05T17:44:50.270Z,71.27
2022-08-05T17:47:17.464Z,71.48
2022-08-05T17:49:52.039Z,72.07
2022-08-05T17:52:30.659Z,72.66
2022-08-05T17:54:57.368Z,72.79
2022-08-05T17:57:24.493Z,73.28
2022-08-05T18:00:05.496Z,73.13
2022-08-05T18:02:32.219Z,72.96
2022-08-05T18:04:58.498Z,73.04
2022-08-05T18:07:25.024Z,73.34
2022-08-05T18:10:08.989Z,73.33
2022-08-05T18:12:36.732Z,74.01
2022-08-05T18:15:03.583Z,74.51
2022-08-05T18:17:59.599Z,74.08
2022-08-05T18:20:17.231Z,74.41
2022-08-05T18:22:53.815Z,74.32
2022-08-05T18:25:20.957Z,74.33
2022-08-05T18:27:52.483Z,73.97
2022-08-05T18:30:19.014Z,74.18
2022-08-05T18:32:59.958Z,73.39
2022-08-05T18:35:49.417Z,73.11
2022-08-05T18:38:13.002Z,72.34
2022-08-05T18:41:55.808Z,72.56
2022-08-05T18:43:31.662Z,72.56
2022-08-05T18:46:04.376Z,72.45
2022-08-05T18:48:33.007Z,71.79
2022-08-05T18:52:03.069Z,71.03
2022-08-05T18:53:50.330Z,70.56
2022-08-05T18:56:16.842Z,70.04
2022-08-05T18:58:47.983Z,69.57
2022-08-05T19:01:17.783Z,69.72
2022-08-05T19:03:53.286Z,70.01
2022-08-05T19:06:34.130Z,70.33
2022-08-05T19:09:04.084Z,70.04
2022-08-05T19:11:59.382Z,69.57
2022-08-05T19:14:59.466Z,70.03
2022-08-05T19:17:02.642Z,70.58
2022-08-05T19:19:32.716Z,70.55
2022-08-05T19:22:00.274Z,70.76
2022-08-05T19:24:34.579Z,70.76
2022-08-05T19:27:03.929Z,71.04
2022-08-05T19:29:36.041Z,71.01
2022-08-05T19:32:02.734Z,71.50
2022-08-05T19:34:30.660Z,71.66
2022-08-05T19:36:56.807Z,71.55
2022-08-05T19:39:23.029Z,71.74
2022-08-05T19:42:05.622Z,72.15
2022-08-05T19:44:36.281Z,71.94
2022-08-05T19:47:10.633Z,71.51
2022-08-05T19:49:41.332Z,71.52
2022-08-05T19:52:30.334Z,71.39
2022-08-05T19:54:54.417Z,70.85
2022-08-05T19:57:46.545Z,71.07
2022-08-05T20:00:06.736Z,71.40
2022-08-05T20:02:32.946Z,71.32
2022-08-05T20:04:59.798Z,71.50
2022-08-05T20:07:46.397Z,71.56
2022-08-05T20:10:13.666Z,71.71
2022-08-05T20:12:47.790Z,71.96
2022-08-05T20:15:23.038Z,71.95
2022-08-05T20:18:01.787Z,72.20
2022-08-05T20:20:39.552Z,72.24
2022-08-05T20:23:05.757Z,72.14
2022-08-05T20:25:39.975Z,72.38
2022-08-05T20:28:13.696Z,72.63
2022-08-05T20:30:41.614Z,72.88
2022-08-05T20:33:07.821Z,72.91
2022-08-05T20:35:40.657Z,72.98
2022-08-05T20:38:20.163Z,73.55
2022-08-05T20:40:52.922Z,73.82
2022-08-05T20:43:57.358Z,73.94
2022-08-05T20:46:10.122Z,73.79
2022-08-05T20:48:38.701Z,73.58
2022-08-05T20:51:08.543Z,73.25
2022-08-05T20:53:36.553Z,73.14
2022-08-05T20:56:08.731Z,73.51
2022-08-05T20:58:35.430Z,73.76
2022-08-05T21:01:01.700Z,73.13
2022-08-05T21:03:29.548Z,73.62
2022-08-05T21:06:00.950Z,73.51
2022-08-05T21:08:41.327Z,74.15
2022-08-05T21:11:09.340Z,73.76
2022-08-05T21:13:55.707Z,73.64
2022-08-05T21:16:22.703Z,73.14
2022-08-05T21:18:55.464Z,72.17
2022-08-05T21:21:24.458Z,72.35
2022-08-05T21:23:50.784Z,72.50
2022-08-05T21:26:18.240Z,73.69
2022-08-05T21:28:50.928Z,73.06
2022-08-05T21:31:17.327Z,72.76
2022-08-05T21:33:43.548Z,71.74
2022-08-05T21:36:14.124Z,68.60
2022-08-05T21:38:53.671Z,67.06
2022-08-05T21:41:20.753Z,66.34
2022-08-05T21:44:01.280Z,65.02
2022-08-05T21:46:28.111Z,65.12
2022-08-05T21:48:56.626Z,65.05
2022-08-05T21:51:25.191Z,65.54
2022-08-05T21:54:09.496Z,65.69
2022-08-05T21:56:35.674Z,65.69
2022-08-05T21:59:24.091Z,64.97
2022-08-05T22:01:54.716Z,63.63
2022-08-05T22:04:20.984Z,62.62
2022-08-05T22:06:51.477Z,61.73
2022-08-05T22:09:20.999Z,61.56
2022-08-05T22:11:48.465Z,61.52
2022-08-05T22:14:34.070Z,60.61
2022-08-05T22:17:03.866Z,59.84
2022-08-05T22:20:00.466Z,60.59
2022-08-05T22:22:27.082Z,60.59
2022-08-05T22:24:56.007Z,59.66
2022-08-05T22:27:22.315Z,59.56
2022-08-05T22:29:48.470Z,59.43
2022-08-05T22:32:20.338Z,59.42
2022-08-05T22:34:49.186Z,59.59
2022-08-05T22:37:15.611Z,60.13
2022-08-05T22:39:41.829Z,59.69
2022-08-05T22:42:15.417Z,59.93
2022-08-05T22:44:56.264Z,59.83
2022-08-05T22:47:30.127Z,60.44
2022-08-05T22:50:21.472Z,60.28
2022-08-05T22:52:42.912Z,60.57
2022-08-05T22:55:18.369Z,60.85
2022-08-05T22:57:46.200Z,61.21
2022-08-05T23:00:12.462Z,61.37
2022-08-05T23:02:46.973Z,60.93
2022-08-05T23:05:13.687Z,60.91
2022-08-05T23:07:48.289Z,60.67
2022-08-05T23:10:15.786Z,60.56
2022-08-05T23:12:45.904Z,60.75
2022-08-05T23:15:12.317Z,61.17
2022-08-05T23:18:00.800Z,60.18
2022-08-05T23:20:25.180Z,60.66
2022-08-05T23:22:56.044Z,60.53
2022-08-05T23:25:51.862Z,60.53
2022-08-05T23:28:08.752Z,60.25
2022-08-05T23:30:34.920Z,60.17
2022-08-05T23:33:06.891Z,59.78
2022-08-05T23:35:42.705Z,60.69
2022-08-05T23:38:12.120Z,60.49
2022-08-05T23:40:38.410Z,60.72
2022-08-05T23:43:24.348Z,60.83
2022-08-05T23:45:50.789Z,60.71
2022-08-05T23:48:17.061Z,61.44
2022-08-05T23:50:45.840Z,61.68
2022-08-05T23:53:22.891Z,61.57
2022-08-05T23:55:49.363Z,61.59
2022-08-05T23:58:31.821Z,61.70
